sensor_id;sensor_type;location;lat;lon;timestamp;P1;durP1;ratioP1;P2;durP2;ratioP2
74920;SDS011;63483;47.384;8.860;2024-01-27T00:00:16;2.67;;;0.70;;
74920;SDS011;63483;47.384;8.860;2024-01-27T00:02:42;3.37;;;1.00;;
74920;SDS011;63483;47.384;8.860;2024-01-27T00:05:08;2.40;;;0.95;;
74920;SDS011;63483;47.384;8.860;2024-01-27T00:07:33;1.53;;;0.97;;
74920;SDS011;63483;47.384;8.860;2024-01-27T00:09:59;1.70;;;0.40;;
74920;SDS011;63483;47.384;8.860;2024-01-27T00:12:25;1.95;;;0.77;;
74920;SDS011;63483;47.384;8.860;2024-01-27T00:14:50;1.80;;;0.80;;
74920;SDS011;63483;47.384;8.860;2024-01-27T00:17:15;2.47;;;0.57;;
74920;SDS011;63483;47.384;8.860;2024-01-27T00:19:41;2.80;;;0.80;;
74920;SDS011;63483;47.384;8.860;2024-01-27T00:22:06;3.30;;;0.90;;
74920;SDS011;63483;47.384;8.860;2024-01-27T00:24:32;3.63;;;0.90;;
74920;SDS011;63483;47.384;8.860;2024-01-27T00:26:57;1.70;;;0.60;;
74920;SDS011;63483;47.384;8.860;2024-01-27T00:29:23;1.50;;;0.83;;
74920;SDS011;63483;47.384;8.860;2024-01-27T00:31:48;2.57;;;0.67;;
74920;SDS011;63483;47.384;8.860;2024-01-27T00:34:14;3.10;;;0.60;;
74920;SDS011;63483;47.384;8.860;2024-01-27T00:36:39;2.90;;;0.90;;
74920;SDS011;63483;47.384;8.860;2024-01-27T00:39:06;1.60;;;0.82;;
74920;SDS011;63483;47.384;8.860;2024-01-27T00:41:31;2.03;;;0.70;;
74920;SDS011;63483;47.384;8.860;2024-01-27T00:43:56;2.07;;;0.90;;
74920;SDS011;63483;47.384;8.860;2024-01-27T00:46:22;1.37;;;0.70;;
74920;SDS011;63483;47.384;8.860;2024-01-27T00:48:47;1.83;;;0.50;;
74920;SDS011;63483;47.384;8.860;2024-01-27T00:51:13;2.20;;;0.50;;
74920;SDS011;63483;47.384;8.860;2024-01-27T00:53:38;1.80;;;0.50;;
74920;SDS011;63483;47.384;8.860;2024-01-27T00:56:04;1.95;;;0.57;;
74920;SDS011;63483;47.384;8.860;2024-01-27T00:58:29;1.90;;;0.50;;
74920;SDS011;63483;47.384;8.860;2024-01-27T01:00:55;2.93;;;0.80;;
74920;SDS011;63483;47.384;8.860;2024-01-27T01:03:20;1.87;;;1.00;;
74920;SDS011;63483;47.384;8.860;2024-01-27T01:05:46;2.70;;;0.83;;
74920;SDS011;63483;47.384;8.860;2024-01-27T01:08:11;2.80;;;0.60;;
74920;SDS011;63483;47.384;8.860;2024-01-27T01:10:36;1.90;;;0.83;;
74920;SDS011;63483;47.384;8.860;2024-01-27T01:13:02;2.83;;;1.10;;
74920;SDS011;63483;47.384;8.860;2024-01-27T01:15:27;1.50;;;0.80;;
74920;SDS011;63483;47.384;8.860;2024-01-27T01:17:52;2.07;;;0.60;;
74920;SDS011;63483;47.384;8.860;2024-01-27T01:20:18;3.63;;;0.77;;
74920;SDS011;63483;47.384;8.860;2024-01-27T01:22:43;1.70;;;0.67;;
74920;SDS011;63483;47.384;8.860;2024-01-27T01:25:08;3.17;;;1.00;;
74920;SDS011;63483;47.384;8.860;2024-01-27T01:27:34;1.80;;;0.70;;
74920;SDS011;63483;47.384;8.860;2024-01-27T01:29:59;2.20;;;0.73;;
74920;SDS011;63483;47.384;8.860;2024-01-27T01:32:24;1.83;;;0.70;;
74920;SDS011;63483;47.384;8.860;2024-01-27T01:34:49;2.77;;;0.70;;
74920;SDS011;63483;47.384;8.860;2024-01-27T01:37:15;2.23;;;0.90;;
74920;SDS011;63483;47.384;8.860;2024-01-27T01:39:40;2.80;;;0.70;;
74920;SDS011;63483;47.384;8.860;2024-01-27T01:42:05;1.30;;;0.70;;
74920;SDS011;63483;47.384;8.860;2024-01-27T01:44:31;3.07;;;0.70;;
74920;SDS011;63483;47.384;8.860;2024-01-27T01:46:59;3.65;;;0.55;;
74920;SDS011;63483;47.384;8.860;2024-01-27T01:49:24;3.20;;;0.90;;
74920;SDS011;63483;47.384;8.860;2024-01-27T01:51:50;2.90;;;0.77;;
74920;SDS011;63483;47.384;8.860;2024-01-27T01:54:15;2.40;;;0.90;;
74920;SDS011;63483;47.384;8.860;2024-01-27T01:56:42;1.97;;;0.70;;
74920;SDS011;63483;47.384;8.860;2024-01-27T01:59:07;2.30;;;1.02;;
74920;SDS011;63483;47.384;8.860;2024-01-27T02:01:32;2.97;;;0.83;;
74920;SDS011;63483;47.384;8.860;2024-01-27T02:03:58;3.92;;;1.30;;
74920;SDS011;63483;47.384;8.860;2024-01-27T02:06:23;4.27;;;0.93;;
74920;SDS011;63483;47.384;8.860;2024-01-27T02:08:49;2.40;;;0.97;;
74920;SDS011;63483;47.384;8.860;2024-01-27T02:11:15;3.10;;;0.80;;
74920;SDS011;63483;47.384;8.860;2024-01-27T02:13:41;2.10;;;0.73;;
74920;SDS011;63483;47.384;8.860;2024-01-27T02:16:07;4.68;;;0.70;;
74920;SDS011;63483;47.384;8.860;2024-01-27T02:18:33;1.27;;;0.60;;
74920;SDS011;63483;47.384;8.860;2024-01-27T02:20:58;1.80;;;0.83;;
74920;SDS011;63483;47.384;8.860;2024-01-27T02:23:23;2.87;;;1.00;;
74920;SDS011;63483;47.384;8.860;2024-01-27T02:25:49;2.72;;;0.77;;
74920;SDS011;63483;47.384;8.860;2024-01-27T02:28:15;2.13;;;1.07;;
74920;SDS011;63483;47.384;8.860;2024-01-27T02:30:41;3.03;;;1.08;;
74920;SDS011;63483;47.384;8.860;2024-01-27T02:33:06;2.30;;;0.70;;
74920;SDS011;63483;47.384;8.860;2024-01-27T02:35:32;3.83;;;1.00;;
74920;SDS011;63483;47.384;8.860;2024-01-27T02:37:57;2.60;;;0.73;;
74920;SDS011;63483;47.384;8.860;2024-01-27T02:40:22;1.80;;;0.80;;
74920;SDS011;63483;47.384;8.860;2024-01-27T02:42:48;1.67;;;0.53;;
74920;SDS011;63483;47.384;8.860;2024-01-27T02:45:13;1.60;;;0.60;;
74920;SDS011;63483;47.384;8.860;2024-01-27T02:47:38;1.83;;;0.90;;
74920;SDS011;63483;47.384;8.860;2024-01-27T02:50:04;1.77;;;0.90;;
74920;SDS011;63483;47.384;8.860;2024-01-27T02:52:31;2.57;;;0.87;;
74920;SDS011;63483;47.384;8.860;2024-01-27T02:54:57;3.78;;;1.00;;
74920;SDS011;63483;47.384;8.860;2024-01-27T02:57:22;1.70;;;0.80;;
74920;SDS011;63483;47.384;8.860;2024-01-27T02:59:48;3.03;;;1.37;;
74920;SDS011;63483;47.384;8.860;2024-01-27T03:02:14;2.60;;;1.30;;
74920;SDS011;63483;47.384;8.860;2024-01-27T03:04:40;6.93;;;1.80;;
74920;SDS011;63483;47.384;8.860;2024-01-27T03:07:05;3.17;;;0.63;;
74920;SDS011;63483;47.384;8.860;2024-01-27T03:09:31;2.97;;;0.80;;
74920;SDS011;63483;47.384;8.860;2024-01-27T03:11:57;2.78;;;0.85;;
74920;SDS011;63483;47.384;8.860;2024-01-27T03:14:22;2.10;;;0.73;;
74920;SDS011;63483;47.384;8.860;2024-01-27T03:16:48;3.77;;;0.70;;
74920;SDS011;63483;47.384;8.860;2024-01-27T03:19:13;3.23;;;0.70;;
74920;SDS011;63483;47.384;8.860;2024-01-27T03:21:38;3.05;;;0.93;;
74920;SDS011;63483;47.384;8.860;2024-01-27T03:24:04;2.60;;;0.83;;
74920;SDS011;63483;47.384;8.860;2024-01-27T03:26:29;3.93;;;1.20;;
74920;SDS011;63483;47.384;8.860;2024-01-27T03:28:55;5.10;;;1.03;;
74920;SDS011;63483;47.384;8.860;2024-01-27T03:31:20;2.73;;;1.07;;
74920;SDS011;63483;47.384;8.860;2024-01-27T03:33:45;2.47;;;1.13;;
74920;SDS011;63483;47.384;8.860;2024-01-27T03:36:11;2.17;;;1.00;;
74920;SDS011;63483;47.384;8.860;2024-01-27T03:38:37;4.85;;;1.17;;
74920;SDS011;63483;47.384;8.860;2024-01-27T03:41:04;2.05;;;1.00;;
74920;SDS011;63483;47.384;8.860;2024-01-27T03:43:29;2.83;;;1.08;;
74920;SDS011;63483;47.384;8.860;2024-01-27T03:45:56;3.27;;;0.90;;
74920;SDS011;63483;47.384;8.860;2024-01-27T03:48:21;2.75;;;1.05;;
74920;SDS011;63483;47.384;8.860;2024-01-27T03:50:47;3.63;;;1.10;;
74920;SDS011;63483;47.384;8.860;2024-01-27T03:53:12;1.97;;;1.27;;
74920;SDS011;63483;47.384;8.860;2024-01-27T03:55:37;5.00;;;1.40;;
74920;SDS011;63483;47.384;8.860;2024-01-27T03:58:03;3.33;;;1.43;;
74920;SDS011;63483;47.384;8.860;2024-01-27T04:00:28;2.78;;;1.10;;
74920;SDS011;63483;47.384;8.860;2024-01-27T04:02:57;2.92;;;1.30;;
74920;SDS011;63483;47.384;8.860;2024-01-27T04:05:23;3.33;;;0.93;;
74920;SDS011;63483;47.384;8.860;2024-01-27T04:07:48;3.17;;;0.90;;
74920;SDS011;63483;47.384;8.860;2024-01-27T04:10:16;2.47;;;0.75;;
74920;SDS011;63483;47.384;8.860;2024-01-27T04:12:42;2.17;;;1.00;;
74920;SDS011;63483;47.384;8.860;2024-01-27T04:15:08;2.50;;;0.82;;
74920;SDS011;63483;47.384;8.860;2024-01-27T04:17:34;2.97;;;1.10;;
74920;SDS011;63483;47.384;8.860;2024-01-27T04:20:00;4.28;;;1.00;;
74920;SDS011;63483;47.384;8.860;2024-01-27T04:22:25;3.10;;;0.90;;
74920;SDS011;63483;47.384;8.860;2024-01-27T04:24:50;2.30;;;0.90;;
74920;SDS011;63483;47.384;8.860;2024-01-27T04:27:16;2.40;;;1.20;;
74920;SDS011;63483;47.384;8.860;2024-01-27T04:29:41;1.80;;;0.83;;
74920;SDS011;63483;47.384;8.860;2024-01-27T04:32:07;3.28;;;1.27;;
74920;SDS011;63483;47.384;8.860;2024-01-27T04:34:32;2.10;;;0.93;;
74920;SDS011;63483;47.384;8.860;2024-01-27T04:36:57;3.60;;;1.30;;
74920;SDS011;63483;47.384;8.860;2024-01-27T04:39:23;3.47;;;1.20;;
74920;SDS011;63483;47.384;8.860;2024-01-27T04:41:48;3.17;;;1.38;;
74920;SDS011;63483;47.384;8.860;2024-01-27T04:44:14;3.43;;;1.30;;
74920;SDS011;63483;47.384;8.860;2024-01-27T04:46:39;3.47;;;1.00;;
74920;SDS011;63483;47.384;8.860;2024-01-27T04:49:04;3.83;;;1.20;;
74920;SDS011;63483;47.384;8.860;2024-01-27T04:51:30;4.20;;;1.20;;
74920;SDS011;63483;47.384;8.860;2024-01-27T04:53:55;3.50;;;1.20;;
74920;SDS011;63483;47.384;8.860;2024-01-27T04:56:20;3.40;;;1.30;;
74920;SDS011;63483;47.384;8.860;2024-01-27T04:58:46;2.77;;;1.30;;
74920;SDS011;63483;47.384;8.860;2024-01-27T05:01:11;3.27;;;1.20;;
74920;SDS011;63483;47.384;8.860;2024-01-27T05:03:36;3.37;;;1.53;;
74920;SDS011;63483;47.384;8.860;2024-01-27T05:06:02;3.70;;;1.03;;
74920;SDS011;63483;47.384;8.860;2024-01-27T05:08:27;2.75;;;1.35;;
74920;SDS011;63483;47.384;8.860;2024-01-27T05:10:53;4.60;;;1.90;;
74920;SDS011;63483;47.384;8.860;2024-01-27T05:13:18;4.87;;;1.90;;
74920;SDS011;63483;47.384;8.860;2024-01-27T05:15:43;3.70;;;1.20;;
74920;SDS011;63483;47.384;8.860;2024-01-27T05:18:09;4.10;;;1.60;;
74920;SDS011;63483;47.384;8.860;2024-01-27T05:20:35;2.67;;;1.50;;
74920;SDS011;63483;47.384;8.860;2024-01-27T05:23:00;3.10;;;1.50;;
74920;SDS011;63483;47.384;8.860;2024-01-27T05:25:25;3.20;;;1.20;;
74920;SDS011;63483;47.384;8.860;2024-01-27T05:27:51;3.30;;;1.07;;
74920;SDS011;63483;47.384;8.860;2024-01-27T05:30:16;2.57;;;1.10;;
74920;SDS011;63483;47.384;8.860;2024-01-27T05:32:42;4.00;;;1.77;;
74920;SDS011;63483;47.384;8.860;2024-01-27T05:35:07;5.20;;;1.90;;
74920;SDS011;63483;47.384;8.860;2024-01-27T05:37:33;5.57;;;1.65;;
74920;SDS011;63483;47.384;8.860;2024-01-27T05:39:58;3.43;;;1.37;;
74920;SDS011;63483;47.384;8.860;2024-01-27T05:42:23;5.43;;;1.70;;
74920;SDS011;63483;47.384;8.860;2024-01-27T05:44:49;3.40;;;1.20;;
74920;SDS011;63483;47.384;8.860;2024-01-27T05:47:14;4.47;;;1.37;;
74920;SDS011;63483;47.384;8.860;2024-01-27T05:49:40;2.73;;;1.60;;
74920;SDS011;63483;47.384;8.860;2024-01-27T05:52:06;3.35;;;1.50;;
74920;SDS011;63483;47.384;8.860;2024-01-27T05:54:31;4.93;;;1.37;;
74920;SDS011;63483;47.384;8.860;2024-01-27T05:56:57;4.78;;;2.00;;
74920;SDS011;63483;47.384;8.860;2024-01-27T05:59:23;5.23;;;1.37;;
74920;SDS011;63483;47.384;8.860;2024-01-27T06:01:48;4.37;;;1.70;;
74920;SDS011;63483;47.384;8.860;2024-01-27T06:04:13;3.80;;;1.53;;
74920;SDS011;63483;47.384;8.860;2024-01-27T06:06:39;4.63;;;1.50;;
74920;SDS011;63483;47.384;8.860;2024-01-27T06:09:04;4.80;;;1.43;;
74920;SDS011;63483;47.384;8.860;2024-01-27T06:11:30;3.97;;;1.33;;
74920;SDS011;63483;47.384;8.860;2024-01-27T06:13:55;3.88;;;1.60;;
74920;SDS011;63483;47.384;8.860;2024-01-27T06:16:20;4.72;;;1.92;;
74920;SDS011;63483;47.384;8.860;2024-01-27T06:18:46;4.63;;;1.50;;
74920;SDS011;63483;47.384;8.860;2024-01-27T06:21:11;4.83;;;1.40;;
74920;SDS011;63483;47.384;8.860;2024-01-27T06:23:36;3.30;;;1.43;;
74920;SDS011;63483;47.384;8.860;2024-01-27T06:26:08;4.60;;;1.67;;
74920;SDS011;63483;47.384;8.860;2024-01-27T06:28:34;4.03;;;1.80;;
74920;SDS011;63483;47.384;8.860;2024-01-27T06:31:00;5.30;;;1.90;;
74920;SDS011;63483;47.384;8.860;2024-01-27T06:33:27;3.80;;;1.75;;
74920;SDS011;63483;47.384;8.860;2024-01-27T06:35:53;3.17;;;1.50;;
74920;SDS011;63483;47.384;8.860;2024-01-27T06:38:18;4.30;;;1.70;;
74920;SDS011;63483;47.384;8.860;2024-01-27T06:40:44;5.03;;;1.73;;
74920;SDS011;63483;47.384;8.860;2024-01-27T06:43:11;4.83;;;1.77;;
74920;SDS011;63483;47.384;8.860;2024-01-27T06:45:37;4.28;;;1.63;;
74920;SDS011;63483;47.384;8.860;2024-01-27T06:48:03;3.07;;;1.57;;
74920;SDS011;63483;47.384;8.860;2024-01-27T06:50:29;4.80;;;1.90;;
74920;SDS011;63483;47.384;8.860;2024-01-27T06:52:54;5.60;;;2.10;;
74920;SDS011;63483;47.384;8.860;2024-01-27T06:55:20;4.13;;;1.50;;
74920;SDS011;63483;47.384;8.860;2024-01-27T06:57:45;2.97;;;1.70;;
74920;SDS011;63483;47.384;8.860;2024-01-27T07:00:10;2.83;;;1.30;;
74920;SDS011;63483;47.384;8.860;2024-01-27T07:02:39;5.33;;;1.80;;
74920;SDS011;63483;47.384;8.860;2024-01-27T07:05:05;2.95;;;1.52;;
74920;SDS011;63483;47.384;8.860;2024-01-27T07:07:31;4.07;;;1.60;;
74920;SDS011;63483;47.384;8.860;2024-01-27T07:09:56;4.20;;;2.17;;
74920;SDS011;63483;47.384;8.860;2024-01-27T07:12:22;3.67;;;1.80;;
74920;SDS011;63483;47.384;8.860;2024-01-27T07:14:48;5.87;;;2.00;;
74920;SDS011;63483;47.384;8.860;2024-01-27T07:17:13;4.45;;;1.55;;
74920;SDS011;63483;47.384;8.860;2024-01-27T07:19:39;2.88;;;1.60;;
74920;SDS011;63483;47.384;8.860;2024-01-27T07:22:05;5.07;;;2.67;;
74920;SDS011;63483;47.384;8.860;2024-01-27T07:24:30;12.98;;;4.30;;
74920;SDS011;63483;47.384;8.860;2024-01-27T07:26:56;8.67;;;3.53;;
74920;SDS011;63483;47.384;8.860;2024-01-27T07:29:23;4.68;;;3.00;;
74920;SDS011;63483;47.384;8.860;2024-01-27T07:31:49;5.67;;;2.57;;
74920;SDS011;63483;47.384;8.860;2024-01-27T07:34:14;6.70;;;2.70;;
74920;SDS011;63483;47.384;8.860;2024-01-27T07:36:40;5.07;;;2.80;;
74920;SDS011;63483;47.384;8.860;2024-01-27T07:39:05;5.70;;;2.43;;
74920;SDS011;63483;47.384;8.860;2024-01-27T07:41:31;4.93;;;3.03;;
74920;SDS011;63483;47.384;8.860;2024-01-27T07:43:56;9.23;;;4.95;;
74920;SDS011;63483;47.384;8.860;2024-01-27T07:46:22;6.00;;;3.50;;
74920;SDS011;63483;47.384;8.860;2024-01-27T07:48:50;5.28;;;2.90;;
74920;SDS011;63483;47.384;8.860;2024-01-27T07:51:16;6.50;;;2.83;;
74920;SDS011;63483;47.384;8.860;2024-01-27T07:53:41;6.05;;;3.30;;
74920;SDS011;63483;47.384;8.860;2024-01-27T07:56:07;6.43;;;3.20;;
74920;SDS011;63483;47.384;8.860;2024-01-27T07:58:32;4.20;;;2.53;;
74920;SDS011;63483;47.384;8.860;2024-01-27T08:00:58;4.18;;;2.55;;
74920;SDS011;63483;47.384;8.860;2024-01-27T08:03:24;6.00;;;2.33;;
74920;SDS011;63483;47.384;8.860;2024-01-27T08:05:49;5.30;;;2.50;;
74920;SDS011;63483;47.384;8.860;2024-01-27T08:08:14;4.97;;;2.90;;
74920;SDS011;63483;47.384;8.860;2024-01-27T08:10:40;5.00;;;2.80;;
74920;SDS011;63483;47.384;8.860;2024-01-27T08:13:05;6.37;;;2.57;;
74920;SDS011;63483;47.384;8.860;2024-01-27T08:15:30;5.13;;;2.80;;
74920;SDS011;63483;47.384;8.860;2024-01-27T08:17:56;6.07;;;3.10;;
74920;SDS011;63483;47.384;8.860;2024-01-27T08:20:21;5.90;;;2.97;;
74920;SDS011;63483;47.384;8.860;2024-01-27T08:22:46;6.77;;;3.50;;
74920;SDS011;63483;47.384;8.860;2024-01-27T08:25:15;5.63;;;2.85;;
74920;SDS011;63483;47.384;8.860;2024-01-27T08:27:41;7.05;;;2.90;;
74920;SDS011;63483;47.384;8.860;2024-01-27T08:30:06;9.10;;;2.80;;
74920;SDS011;63483;47.384;8.860;2024-01-27T08:32:33;6.93;;;2.97;;
74920;SDS011;63483;47.384;8.860;2024-01-27T08:34:58;4.43;;;2.42;;
74920;SDS011;63483;47.384;8.860;2024-01-27T08:37:23;5.90;;;2.63;;
74920;SDS011;63483;47.384;8.860;2024-01-27T08:39:49;4.37;;;2.50;;
74920;SDS011;63483;47.384;8.860;2024-01-27T08:42:16;3.88;;;2.50;;
74920;SDS011;63483;47.384;8.860;2024-01-27T08:44:41;4.73;;;2.67;;
74920;SDS011;63483;47.384;8.860;2024-01-27T08:47:06;5.57;;;2.60;;
74920;SDS011;63483;47.384;8.860;2024-01-27T08:49:32;4.50;;;2.80;;
74920;SDS011;63483;47.384;8.860;2024-01-27T08:51:57;3.87;;;2.23;;
74920;SDS011;63483;47.384;8.860;2024-01-27T08:54:23;4.50;;;2.60;;
74920;SDS011;63483;47.384;8.860;2024-01-27T08:56:49;4.45;;;2.05;;
74920;SDS011;63483;47.384;8.860;2024-01-27T08:59:14;5.18;;;2.50;;
74920;SDS011;63483;47.384;8.860;2024-01-27T09:01:39;4.80;;;3.00;;
74920;SDS011;63483;47.384;8.860;2024-01-27T09:04:05;3.80;;;2.20;;
74920;SDS011;63483;47.384;8.860;2024-01-27T09:06:30;6.83;;;3.40;;
74920;SDS011;63483;47.384;8.860;2024-01-27T09:08:56;6.65;;;3.90;;
74920;SDS011;63483;47.384;8.860;2024-01-27T09:11:22;7.77;;;3.47;;
74920;SDS011;63483;47.384;8.860;2024-01-27T09:13:48;7.05;;;3.92;;
74920;SDS011;63483;47.384;8.860;2024-01-27T09:16:16;6.07;;;3.97;;
74920;SDS011;63483;47.384;8.860;2024-01-27T09:18:42;6.10;;;3.30;;
74920;SDS011;63483;47.384;8.860;2024-01-27T09:21:07;6.43;;;3.43;;
74920;SDS011;63483;47.384;8.860;2024-01-27T09:23:34;6.80;;;4.38;;
74920;SDS011;63483;47.384;8.860;2024-01-27T09:25:59;6.10;;;3.50;;
74920;SDS011;63483;47.384;8.860;2024-01-27T09:28:24;6.63;;;4.03;;
74920;SDS011;63483;47.384;8.860;2024-01-27T09:30:50;8.80;;;4.47;;
74920;SDS011;63483;47.384;8.860;2024-01-27T09:33:15;7.97;;;4.80;;
74920;SDS011;63483;47.384;8.860;2024-01-27T09:35:42;7.18;;;4.38;;
74920;SDS011;63483;47.384;8.860;2024-01-27T09:38:07;10.83;;;6.07;;
74920;SDS011;63483;47.384;8.860;2024-01-27T09:40:34;7.10;;;4.70;;
74920;SDS011;63483;47.384;8.860;2024-01-27T09:43:00;8.97;;;4.63;;
74920;SDS011;63483;47.384;8.860;2024-01-27T09:45:26;7.10;;;4.53;;
74920;SDS011;63483;47.384;8.860;2024-01-27T09:47:51;6.57;;;4.37;;
74920;SDS011;63483;47.384;8.860;2024-01-27T09:50:18;7.57;;;4.40;;
74920;SDS011;63483;47.384;8.860;2024-01-27T09:52:45;8.13;;;3.92;;
74920;SDS011;63483;47.384;8.860;2024-01-27T09:55:10;7.13;;;4.47;;
74920;SDS011;63483;47.384;8.860;2024-01-27T09:57:38;8.20;;;4.13;;
74920;SDS011;63483;47.384;8.860;2024-01-27T10:00:04;7.97;;;4.00;;
74920;SDS011;63483;47.384;8.860;2024-01-27T10:02:41;5.57;;;3.67;;
74920;SDS011;63483;47.384;8.860;2024-01-27T10:05:08;6.15;;;4.22;;
74920;SDS011;63483;47.384;8.860;2024-01-27T10:07:34;6.38;;;3.17;;
74920;SDS011;63483;47.384;8.860;2024-01-27T10:09:59;6.50;;;3.77;;
74920;SDS011;63483;47.384;8.860;2024-01-27T10:12:25;5.53;;;3.63;;
74920;SDS011;63483;47.384;8.860;2024-01-27T10:14:51;5.63;;;3.70;;
74920;SDS011;63483;47.384;8.860;2024-01-27T10:17:21;6.15;;;3.38;;
74920;SDS011;63483;47.384;8.860;2024-01-27T10:20:01;8.38;;;3.63;;
74920;SDS011;63483;47.384;8.860;2024-01-27T10:22:28;7.50;;;4.17;;
74920;SDS011;63483;47.384;8.860;2024-01-27T10:24:54;5.53;;;3.33;;
74920;SDS011;63483;47.384;8.860;2024-01-27T10:27:20;6.75;;;3.50;;
74920;SDS011;63483;47.384;8.860;2024-01-27T10:29:53;6.00;;;3.50;;
74920;SDS011;63483;47.384;8.860;2024-01-27T10:32:21;7.30;;;3.72;;
74920;SDS011;63483;47.384;8.860;2024-01-27T10:35:05;6.27;;;3.40;;
74920;SDS011;63483;47.384;8.860;2024-01-27T10:37:34;5.25;;;3.22;;
74920;SDS011;63483;47.384;8.860;2024-01-27T10:42:29;5.03;;;2.80;;
74920;SDS011;63483;47.384;8.860;2024-01-27T10:44:58;4.95;;;3.00;;
74920;SDS011;63483;47.384;8.860;2024-01-27T10:47:27;5.87;;;3.13;;
74920;SDS011;63483;47.384;8.860;2024-01-27T10:49:57;7.25;;;3.10;;
74920;SDS011;63483;47.384;8.860;2024-01-27T10:52:24;5.35;;;3.08;;
74920;SDS011;63483;47.384;8.860;2024-01-27T10:55:00;4.63;;;2.58;;
74920;SDS011;63483;47.384;8.860;2024-01-27T10:57:27;5.07;;;3.05;;
74920;SDS011;63483;47.384;8.860;2024-01-27T10:59:54;4.83;;;2.60;;
74920;SDS011;63483;47.384;8.860;2024-01-27T11:02:21;7.95;;;3.30;;
74920;SDS011;63483;47.384;8.860;2024-01-27T11:04:47;5.88;;;3.13;;
74920;SDS011;63483;47.384;8.860;2024-01-27T11:07:14;6.28;;;3.08;;
74920;SDS011;63483;47.384;8.860;2024-01-27T11:09:40;6.30;;;3.10;;
74920;SDS011;63483;47.384;8.860;2024-01-27T11:12:07;6.80;;;2.93;;
74920;SDS011;63483;47.384;8.860;2024-01-27T11:14:33;5.15;;;3.30;;
74920;SDS011;63483;47.384;8.860;2024-01-27T11:16:59;7.10;;;3.77;;
74920;SDS011;63483;47.384;8.860;2024-01-27T11:19:24;6.43;;;3.60;;
74920;SDS011;63483;47.384;8.860;2024-01-27T11:22:02;7.63;;;3.57;;
74920;SDS011;63483;47.384;8.860;2024-01-27T11:24:28;6.57;;;3.42;;
74920;SDS011;63483;47.384;8.860;2024-01-27T11:27:01;5.90;;;3.60;;
74920;SDS011;63483;47.384;8.860;2024-01-27T11:29:27;6.50;;;2.78;;
74920;SDS011;63483;47.384;8.860;2024-01-27T11:31:54;6.15;;;3.35;;
74920;SDS011;63483;47.384;8.860;2024-01-27T11:34:20;8.20;;;3.90;;
74920;SDS011;63483;47.384;8.860;2024-01-27T11:36:46;4.82;;;2.80;;
74920;SDS011;63483;47.384;8.860;2024-01-27T11:39:27;4.53;;;3.17;;
74920;SDS011;63483;47.384;8.860;2024-01-27T11:42:07;7.80;;;3.60;;
74920;SDS011;63483;47.384;8.860;2024-01-27T11:44:34;6.43;;;3.42;;
74920;SDS011;63483;47.384;8.860;2024-01-27T11:47:00;4.38;;;2.63;;
74920;SDS011;63483;47.384;8.860;2024-01-27T11:49:26;7.03;;;4.17;;
74920;SDS011;63483;47.384;8.860;2024-01-27T11:51:52;8.57;;;4.10;;
74920;SDS011;63483;47.384;8.860;2024-01-27T11:54:17;5.40;;;4.10;;
74920;SDS011;63483;47.384;8.860;2024-01-27T11:56:42;7.53;;;4.13;;
74920;SDS011;63483;47.384;8.860;2024-01-27T11:59:07;7.10;;;3.90;;
74920;SDS011;63483;47.384;8.860;2024-01-27T12:01:35;8.15;;;3.90;;
74920;SDS011;63483;47.384;8.860;2024-01-27T12:04:02;7.53;;;4.13;;
74920;SDS011;63483;47.384;8.860;2024-01-27T12:06:28;5.27;;;3.60;;
74920;SDS011;63483;47.384;8.860;2024-01-27T12:08:55;5.50;;;3.43;;
74920;SDS011;63483;47.384;8.860;2024-01-27T12:11:22;5.60;;;3.55;;
74920;SDS011;63483;47.384;8.860;2024-01-27T12:13:48;6.78;;;3.90;;
74920;SDS011;63483;47.384;8.860;2024-01-27T12:16:13;6.07;;;3.67;;
74920;SDS011;63483;47.384;8.860;2024-01-27T12:18:39;8.13;;;3.60;;
74920;SDS011;63483;47.384;8.860;2024-01-27T12:21:05;8.00;;;4.10;;
74920;SDS011;63483;47.384;8.860;2024-01-27T12:23:30;6.33;;;3.63;;
74920;SDS011;63483;47.384;8.860;2024-01-27T12:25:55;7.90;;;4.77;;
74920;SDS011;63483;47.384;8.860;2024-01-27T12:28:24;8.35;;;4.22;;
74920;SDS011;63483;47.384;8.860;2024-01-27T12:30:51;8.20;;;5.07;;
74920;SDS011;63483;47.384;8.860;2024-01-27T12:33:17;9.18;;;5.00;;
74920;SDS011;63483;47.384;8.860;2024-01-27T12:35:47;8.68;;;5.20;;
74920;SDS011;63483;47.384;8.860;2024-01-27T12:38:12;7.67;;;4.93;;
74920;SDS011;63483;47.384;8.860;2024-01-27T12:40:38;8.25;;;4.63;;
74920;SDS011;63483;47.384;8.860;2024-01-27T12:43:03;9.43;;;5.25;;
74920;SDS011;63483;47.384;8.860;2024-01-27T12:45:29;6.77;;;4.17;;
74920;SDS011;63483;47.384;8.860;2024-01-27T12:47:54;8.10;;;4.67;;
74920;SDS011;63483;47.384;8.860;2024-01-27T12:50:20;8.57;;;4.00;;
74920;SDS011;63483;47.384;8.860;2024-01-27T12:52:45;9.57;;;4.57;;
74920;SDS011;63483;47.384;8.860;2024-01-27T12:55:10;8.43;;;4.40;;
74920;SDS011;63483;47.384;8.860;2024-01-27T12:57:36;6.30;;;4.00;;
74920;SDS011;63483;47.384;8.860;2024-01-27T13:00:01;6.80;;;4.27;;
74920;SDS011;63483;47.384;8.860;2024-01-27T13:02:34;7.10;;;4.05;;
74920;SDS011;63483;47.384;8.860;2024-01-27T13:05:00;8.90;;;4.90;;
74920;SDS011;63483;47.384;8.860;2024-01-27T13:07:25;9.00;;;4.50;;
74920;SDS011;63483;47.384;8.860;2024-01-27T13:09:51;5.67;;;3.93;;
74920;SDS011;63483;47.384;8.860;2024-01-27T13:12:16;7.80;;;4.17;;
74920;SDS011;63483;47.384;8.860;2024-01-27T13:14:41;8.53;;;3.90;;
74920;SDS011;63483;47.384;8.860;2024-01-27T13:17:07;8.73;;;3.90;;
74920;SDS011;63483;47.384;8.860;2024-01-27T13:19:32;5.72;;;3.58;;
74920;SDS011;63483;47.384;8.860;2024-01-27T13:21:58;6.43;;;3.77;;
74920;SDS011;63483;47.384;8.860;2024-01-27T13:24:23;8.43;;;3.77;;
74920;SDS011;63483;47.384;8.860;2024-01-27T13:26:50;8.85;;;4.10;;
74920;SDS011;63483;47.384;8.860;2024-01-27T13:29:16;10.07;;;3.58;;
74920;SDS011;63483;47.384;8.860;2024-01-27T13:31:42;5.07;;;3.33;;
74920;SDS011;63483;47.384;8.860;2024-01-27T13:34:07;6.37;;;3.00;;
74920;SDS011;63483;47.384;8.860;2024-01-27T13:36:32;8.07;;;3.13;;
74920;SDS011;63483;47.384;8.860;2024-01-27T13:38:59;6.50;;;3.08;;
74920;SDS011;63483;47.384;8.860;2024-01-27T13:41:25;4.73;;;2.90;;
74920;SDS011;63483;47.384;8.860;2024-01-27T13:43:50;5.97;;;3.47;;
74920;SDS011;63483;47.384;8.860;2024-01-27T13:46:16;4.67;;;3.03;;
74920;SDS011;63483;47.384;8.860;2024-01-27T13:48:41;6.63;;;2.70;;
74920;SDS011;63483;47.384;8.860;2024-01-27T13:51:07;5.67;;;3.13;;
74920;SDS011;63483;47.384;8.860;2024-01-27T13:53:32;6.07;;;2.63;;
74920;SDS011;63483;47.384;8.860;2024-01-27T13:55:58;4.93;;;3.27;;
74920;SDS011;63483;47.384;8.860;2024-01-27T13:58:25;7.90;;;3.15;;
74920;SDS011;63483;47.384;8.860;2024-01-27T14:00:51;6.47;;;3.00;;
74920;SDS011;63483;47.384;8.860;2024-01-27T14:03:16;5.68;;;3.10;;
74920;SDS011;63483;47.384;8.860;2024-01-27T14:05:42;5.30;;;2.70;;
74920;SDS011;63483;47.384;8.860;2024-01-27T14:08:08;4.40;;;2.67;;
74920;SDS011;63483;47.384;8.860;2024-01-27T14:10:35;5.78;;;2.92;;
74920;SDS011;63483;47.384;8.860;2024-01-27T14:13:01;4.78;;;3.30;;
74920;SDS011;63483;47.384;8.860;2024-01-27T14:15:29;4.28;;;3.10;;
74920;SDS011;63483;47.384;8.860;2024-01-27T14:17:55;5.87;;;3.50;;
74920;SDS011;63483;47.384;8.860;2024-01-27T14:20:20;5.47;;;2.77;;
74920;SDS011;63483;47.384;8.860;2024-01-27T14:22:45;5.20;;;3.00;;
74920;SDS011;63483;47.384;8.860;2024-01-27T14:25:11;4.97;;;3.65;;
74920;SDS011;63483;47.384;8.860;2024-01-27T14:27:37;4.80;;;2.87;;
74920;SDS011;63483;47.384;8.860;2024-01-27T14:30:02;5.77;;;3.57;;
74920;SDS011;63483;47.384;8.860;2024-01-27T14:32:28;6.88;;;3.30;;
74920;SDS011;63483;47.384;8.860;2024-01-27T14:34:53;6.07;;;3.07;;
74920;SDS011;63483;47.384;8.860;2024-01-27T14:37:18;4.90;;;3.13;;
74920;SDS011;63483;47.384;8.860;2024-01-27T14:39:44;6.87;;;2.80;;
74920;SDS011;63483;47.384;8.860;2024-01-27T14:42:12;6.22;;;3.75;;